createdAt,value
2023-01-08T00:01:06.217Z,84.75
2023-01-08T00:03:32.772Z,85.61
2023-01-08T00:06:04.094Z,85.74
2023-01-08T00:08:32.004Z,86.02
2023-01-08T00:10:59.820Z,85.87
2023-01-08T00:13:26.924Z,85.99
2023-01-08T00:15:54.245Z,85.88
2023-01-08T00:18:20.737Z,85.89
2023-01-08T00:20:47.587Z,86.06
2023-01-08T00:23:15.964Z,85.55
2023-01-08T00:25:42.588Z,86.06
2023-01-08T00:28:09.468Z,86.08
2023-01-08T00:30:36.504Z,86.56
2023-01-08T00:33:03.023Z,86.35
2023-01-08T00:35:29.619Z,86.48
2023-01-08T00:37:55.967Z,86.24
2023-01-08T00:40:22.444Z,86.36
2023-01-08T00:42:48.825Z,86.20
2023-01-08T00:45:15.477Z,86.38
2023-01-08T00:47:41.800Z,86.57
2023-01-08T00:50:08.522Z,86.48
2023-01-08T00:52:34.890Z,86.44
2023-01-08T00:55:01.284Z,86.60
2023-01-08T00:57:33.110Z,86.15
2023-01-08T00:59:59.505Z,86.30
2023-01-08T01:02:26.049Z,86.42
2023-01-08T01:04:52.451Z,86.54
2023-01-08T01:07:18.887Z,86.59
2023-01-08T01:09:45.581Z,86.51
2023-01-08T01:12:12.008Z,86.32
2023-01-08T01:14:38.786Z,86.66
2023-01-08T01:17:05.349Z,86.23
2023-01-08T01:19:31.852Z,86.24
2023-01-08T01:21:59.336Z,86.63
2023-01-08T01:24:25.753Z,86.37
2023-01-08T01:26:52.355Z,86.33
2023-01-08T01:29:18.773Z,86.58
2023-01-08T01:31:45.179Z,86.51
2023-01-08T01:34:11.594Z,86.17
2023-01-08T01:36:37.985Z,85.83
2023-01-08T01:39:05.279Z,85.47
2023-01-08T01:41:45.184Z,85.44
2023-01-08T01:44:36.210Z,85.35
2023-01-08T01:47:25.173Z,85.25
2023-01-08T01:50:15.915Z,85.43
2023-01-08T01:52:50.784Z,85.09
2023-01-08T01:55:18.150Z,85.41
2023-01-08T01:57:54.921Z,85.41
2023-01-08T02:00:23.148Z,85.51
2023-01-08T02:02:50.872Z,86.22
2023-01-08T02:05:17.377Z,85.64
2023-01-08T02:07:55.883Z,85.42
2023-01-08T02:10:42.086Z,85.32
2023-01-08T02:13:14.556Z,85.74
2023-01-08T02:15:49.959Z,85.22
2023-01-08T02:18:29.051Z,85.68
2023-01-08T02:21:01.588Z,85.58
2023-01-08T02:23:55.551Z,85.85
2023-01-08T02:26:27.742Z,85.88
2023-01-08T02:29:04.016Z,86.15
2023-01-08T02:31:32.097Z,85.95
2023-01-08T02:33:58.668Z,85.92
2023-01-08T02:36:43.444Z,85.80
2023-01-08T02:39:28.016Z,85.80
2023-01-08T02:42:31.528Z,86.05
2023-01-08T02:45:13.120Z,86.33
2023-01-08T02:47:44.922Z,86.02
2023-01-08T02:50:11.368Z,85.83
2023-01-08T02:52:46.895Z,85.92
2023-01-08T02:55:15.253Z,85.86
2023-01-08T02:57:42.193Z,85.97
2023-01-08T03:00:09.681Z,85.72
2023-01-08T03:02:39.951Z,85.92
2023-01-08T03:05:15.650Z,86.19
2023-01-08T03:07:42.327Z,86.21
2023-01-08T03:10:11.059Z,86.17
2023-01-08T03:12:58.753Z,86.47
2023-01-08T03:15:33.958Z,86.29
2023-01-08T03:18:07.252Z,86.58
2023-01-08T03:20:37.828Z,86.68
2023-01-08T03:23:07.817Z,86.49
2023-01-08T03:25:37.108Z,86.54
2023-01-08T03:28:09.999Z,86.85
2023-01-08T03:30:39.647Z,86.74
2023-01-08T03:33:09.033Z,86.74
2023-01-08T03:35:38.328Z,86.91
2023-01-08T03:38:15.710Z,86.97
2023-01-08T03:40:47.521Z,86.94
2023-01-08T03:43:14.303Z,87.13
2023-01-08T03:45:51.635Z,87.02
2023-01-08T03:48:20.643Z,87.05
2023-01-08T03:50:47.857Z,86.85
2023-01-08T03:53:14.781Z,86.87
2023-01-08T03:55:41.297Z,87.36
2023-01-08T03:58:07.644Z,87.18
2023-01-08T04:00:34.103Z,87.18
2023-01-08T04:03:00.434Z,87.23
2023-01-08T04:05:26.851Z,87.25
2023-01-08T04:07:57.125Z,87.13
2023-01-08T04:10:25.129Z,86.81
2023-01-08T04:12:51.631Z,86.79
2023-01-08T04:15:18.532Z,86.88
2023-01-08T04:17:44.974Z,87.14
2023-01-08T04:20:11.667Z,86.84
2023-01-08T04:22:38.043Z,87.00
2023-01-08T04:25:04.836Z,86.61
2023-01-08T04:27:31.232Z,86.53
2023-01-08T04:29:57.599Z,86.59
2023-01-08T04:32:24.047Z,86.33
2023-01-08T04:34:50.396Z,85.67
2023-01-08T04:37:16.788Z,85.86
2023-01-08T04:39:43.121Z,85.62
2023-01-08T04:42:09.509Z,85.18
2023-01-08T04:44:35.913Z,84.96
2023-01-08T04:47:02.401Z,84.89
2023-01-08T04:49:28.864Z,84.71
2023-01-08T04:51:55.207Z,84.94
2023-01-08T04:54:21.588Z,84.77
2023-01-08T04:56:51.625Z,84.71
2023-01-08T04:59:18.135Z,84.84
2023-01-08T05:01:44.609Z,85.06
2023-01-08T05:04:11.460Z,84.53
2023-01-08T05:06:37.908Z,84.84
2023-01-08T05:09:04.323Z,84.62
2023-01-08T05:11:30.667Z,84.71
2023-01-08T05:13:57.042Z,84.86
2023-01-08T05:16:23.603Z,84.36
2023-01-08T05:18:50.056Z,84.55
2023-01-08T05:21:16.938Z,84.59
2023-01-08T05:23:47.831Z,84.80
2023-01-08T05:26:15.271Z,84.89
2023-01-08T05:28:41.664Z,84.63
2023-01-08T05:31:08.095Z,84.41
2023-01-08T05:33:34.592Z,84.58
2023-01-08T05:36:00.951Z,84.28
2023-01-08T05:38:27.376Z,84.55
2023-01-08T05:40:53.929Z,84.56
2023-01-08T05:43:20.313Z,84.10
2023-01-08T05:45:46.716Z,84.22
2023-01-08T05:48:13.078Z,84.64
2023-01-08T05:50:39.413Z,84.30
2023-01-08T05:53:07.515Z,84.36
2023-01-08T05:55:34.328Z,84.45
2023-01-08T05:58:02.669Z,84.40
2023-01-08T06:00:29.740Z,84.30
2023-01-08T06:02:56.175Z,84.25
2023-01-08T06:05:22.615Z,84.54
2023-01-08T06:07:49.058Z,84.30
2023-01-08T06:10:15.554Z,84.42
2023-01-08T06:12:41.915Z,84.53
2023-01-08T06:15:10.101Z,84.61
2023-01-08T06:17:36.576Z,84.35
2023-01-08T06:20:03.202Z,84.69
2023-01-08T06:22:29.597Z,84.48
2023-01-08T06:24:55.963Z,84.62
2023-01-08T06:27:22.316Z,84.39
2023-01-08T06:29:48.736Z,84.33
2023-01-08T06:32:15.153Z,84.18
2023-01-08T06:34:41.609Z,84.19
2023-01-08T06:37:08.005Z,83.84
2023-01-08T06:39:34.368Z,84.14
2023-01-08T06:42:00.796Z,84.13
2023-01-08T06:44:27.178Z,83.83
2023-01-08T06:46:53.666Z,83.79
2023-01-08T06:49:20.561Z,84.00
2023-01-08T06:51:47.190Z,83.65
2023-01-08T06:54:13.989Z,83.98
2023-01-08T06:56:52.880Z,83.72
2023-01-08T06:59:19.869Z,83.69
2023-01-08T07:01:46.370Z,83.44
2023-01-08T07:04:12.793Z,83.58
2023-01-08T07:06:39.171Z,83.53
2023-01-08T07:09:05.548Z,83.77
2023-01-08T07:11:32.010Z,83.79
2023-01-08T07:13:58.370Z,83.77
2023-01-08T07:16:24.812Z,83.42
2023-01-08T07:18:51.232Z,83.41
2023-01-08T07:21:17.603Z,83.72
2023-01-08T07:23:45.517Z,83.30
2023-01-08T07:26:12.033Z,83.20
2023-01-08T07:28:38.421Z,83.35
2023-01-08T07:31:06.191Z,83.28
2023-01-08T07:33:32.740Z,83.44
2023-01-08T07:35:59.314Z,83.01
2023-01-08T07:38:26.047Z,83.10
2023-01-08T07:40:52.535Z,82.81
2023-01-08T07:43:19.051Z,83.01
2023-01-08T07:45:45.772Z,82.59
2023-01-08T07:48:15.819Z,82.67
2023-01-08T07:50:43.910Z,82.48
2023-01-08T07:53:11.505Z,82.29
2023-01-08T07:55:38.059Z,82.31
2023-01-08T07:58:12.570Z,82.00
2023-01-08T08:00:39.490Z,82.28
2023-01-08T08:03:07.544Z,81.96
2023-01-08T08:05:34.153Z,81.66
2023-01-08T08:08:01.121Z,82.06
2023-01-08T08:10:27.965Z,81.60
2023-01-08T08:12:54.370Z,81.55
2023-01-08T08:15:20.808Z,81.94
2023-01-08T08:17:48.077Z,81.54
2023-01-08T08:20:15.033Z,81.22
2023-01-08T08:22:41.509Z,81.42
2023-01-08T08:25:08.381Z,81.57
2023-01-08T08:27:34.762Z,81.56
2023-01-08T08:30:01.305Z,81.31
2023-01-08T08:32:27.671Z,81.33
2023-01-08T08:34:54.006Z,81.42
2023-01-08T08:37:20.385Z,80.96
2023-01-08T08:39:46.966Z,81.41
2023-01-08T08:42:13.341Z,81.22
2023-01-08T08:44:42.005Z,81.16
2023-01-08T08:47:09.542Z,80.78
2023-01-08T08:49:39.969Z,80.83
2023-01-08T08:52:06.755Z,80.82
2023-01-08T08:54:33.201Z,80.96
2023-01-08T08:56:59.515Z,80.93
2023-01-08T08:59:26.014Z,80.97
2023-01-08T09:01:52.535Z,80.80
2023-01-08T09:04:18.992Z,80.52
2023-01-08T09:06:45.393Z,80.51
2023-01-08T09:09:11.932Z,80.84
2023-01-08T09:11:38.369Z,80.95
2023-01-08T09:14:04.858Z,80.90
2023-01-08T09:16:33.002Z,80.93
2023-01-08T09:18:59.437Z,81.15
2023-01-08T09:21:25.768Z,80.93
2023-01-08T09:23:52.137Z,80.76
2023-01-08T09:26:18.459Z,80.88
2023-01-08T09:28:44.863Z,80.87
2023-01-08T09:31:11.380Z,81.12
2023-01-08T09:33:37.797Z,81.05
2023-01-08T09:36:04.360Z,80.95
2023-01-08T09:38:30.735Z,81.10
2023-01-08T09:41:01.458Z,80.73
2023-01-08T09:43:30.875Z,80.86
2023-01-08T09:46:02.595Z,80.84
2023-01-08T09:48:32.977Z,80.86
2023-01-08T09:50:59.370Z,81.06
2023-01-08T09:53:26.089Z,81.03
2023-01-08T09:56:09.188Z,81.09
2023-01-08T09:58:50.435Z,81.03
2023-01-08T10:01:22.644Z,81.41
2023-01-08T10:03:55.682Z,81.52
2023-01-08T10:06:23.700Z,81.16
2023-01-08T10:08:50.860Z,81.18
2023-01-08T10:11:18.680Z,81.32
2023-01-08T10:13:51.881Z,81.30
2023-01-08T10:16:27.754Z,81.71
2023-01-08T10:18:54.524Z,81.34
2023-01-08T10:21:30.835Z,81.69
2023-01-08T10:23:57.425Z,81.54
2023-01-08T10:26:30.199Z,81.62
2023-01-08T10:29:12.239Z,81.89
2023-01-08T10:31:58.977Z,81.80
2023-01-08T10:34:39.579Z,82.16
2023-01-08T10:37:25.766Z,81.93
2023-01-08T10:39:54.339Z,82.23
2023-01-08T10:42:22.535Z,82.05
2023-01-08T10:45:02.619Z,82.06
2023-01-08T10:47:32.985Z,82.52
2023-01-08T10:50:02.508Z,82.21
2023-01-08T10:52:34.365Z,82.33
2023-01-08T10:55:21.177Z,82.66
2023-01-08T10:57:56.503Z,82.38
2023-01-08T11:00:29.200Z,82.64
2023-01-08T11:02:58.830Z,82.62
2023-01-08T11:05:51.437Z,82.49
2023-01-08T11:08:23.013Z,82.45
2023-01-08T11:10:55.009Z,82.51
2023-01-08T11:13:21.933Z,82.33
2023-01-08T11:16:10.497Z,82.33
2023-01-08T11:18:47.059Z,82.09
2023-01-08T11:21:33.518Z,82.01
2023-01-08T11:24:23.631Z,82.06
2023-01-08T11:27:29.921Z,81.96
2023-01-08T11:30:05.902Z,81.56
2023-01-08T11:32:54.852Z,81.74
2023-01-08T11:35:26.587Z,81.97
2023-01-08T11:37:59.400Z,81.70
2023-01-08T11:40:31.439Z,81.25
2023-01-08T11:43:41.038Z,81.38
2023-01-08T11:46:07.467Z,81.57
2023-01-08T11:48:46.345Z,81.17
2023-01-08T11:51:31.541Z,81.28
2023-01-08T11:54:31.661Z,81.50
2023-01-08T11:57:26.328Z,81.58
2023-01-08T12:00:14.217Z,81.15
2023-01-08T12:02:52.844Z,81.03
2023-01-08T12:05:38.689Z,80.80
2023-01-08T12:08:13.376Z,80.90
2023-01-08T12:10:53.088Z,80.54
2023-01-08T12:13:45.980Z,80.75
2023-01-08T12:16:47.871Z,80.12
2023-01-08T12:19:32.202Z,80.03
2023-01-08T12:21:58.517Z,80.25
2023-01-08T12:25:06.405Z,79.93
2023-01-08T12:28:03.911Z,79.64
2023-01-08T12:30:48.818Z,79.43
2023-01-08T12:33:27.776Z,79.70
2023-01-08T12:35:58.908Z,79.34
2023-01-08T12:38:30.781Z,79.41
2023-01-08T12:41:04.918Z,79.32
2023-01-08T12:44:04.834Z,79.02
2023-01-08T12:46:37.112Z,78.90
2023-01-08T12:49:08.047Z,78.93
2023-01-08T12:51:38.140Z,78.87
2023-01-08T12:54:22.032Z,78.77
2023-01-08T12:57:12.722Z,78.79
2023-01-08T12:59:48.037Z,78.63
2023-01-08T13:02:48.810Z,78.40
2023-01-08T13:05:18.114Z,78.26
2023-01-08T13:07:58.241Z,77.94
2023-01-08T13:10:38.915Z,77.49
2023-01-08T13:13:08.275Z,77.64
2023-01-08T13:15:36.012Z,78.30
2023-01-08T13:18:18.949Z,77.83
2023-01-08T13:20:59.446Z,78.06
2023-01-08T13:23:28.522Z,77.32
2023-01-08T13:25:57.454Z,77.54
2023-01-08T13:28:31.640Z,77.25
2023-01-08T13:31:28.296Z,77.02
2023-01-08T13:33:55.858Z,76.49
2023-01-08T13:36:30.328Z,76.53
2023-01-08T13:39:10.316Z,76.10
2023-01-08T13:41:42.136Z,76.15
2023-01-08T13:44:27.501Z,76.47
2023-01-08T13:46:56.563Z,76.32
2023-01-08T13:49:31.951Z,75.65
2023-01-08T13:51:58.347Z,75.55
2023-01-08T13:54:39.931Z,75.50
2023-01-08T13:57:13.523Z,75.56
2023-01-08T13:59:54.045Z,75.05
2023-01-08T14:02:33.013Z,75.39
2023-01-08T14:05:01.667Z,74.93
2023-01-08T14:07:28.510Z,74.69
2023-01-08T14:10:08.058Z,74.63
2023-01-08T14:12:35.164Z,74.01
2023-01-08T14:15:04.139Z,73.89
2023-01-08T14:17:32.348Z,73.51
2023-01-08T14:19:59.492Z,73.55
2023-01-08T14:22:34.855Z,73.46
2023-01-08T14:25:04.486Z,73.95
2023-01-08T14:27:32.002Z,73.80
2023-01-08T14:29:59.034Z,74.00
2023-01-08T14:32:29.319Z,73.84
2023-01-08T14:34:58.891Z,74.13
2023-01-08T14:37:25.583Z,74.14
2023-01-08T14:39:54.787Z,74.49
2023-01-08T14:42:41.757Z,74.45
2023-01-08T14:45:14.365Z,74.60
2023-01-08T14:47:45.833Z,74.47
2023-01-08T14:50:24.439Z,74.38
2023-01-08T14:52:52.691Z,74.61
2023-01-08T14:55:21.469Z,74.58
2023-01-08T14:57:52.163Z,74.61
2023-01-08T15:00:26.584Z,74.23
2023-01-08T15:02:53.417Z,73.93
2023-01-08T15:05:27.438Z,74.32
2023-01-08T15:08:04.466Z,74.21
2023-01-08T15:10:40.857Z,74.20
2023-01-08T15:13:21.864Z,74.02
2023-01-08T15:15:59.195Z,73.91
2023-01-08T15:18:26.312Z,73.49
2023-01-08T15:20:53.899Z,73.49
2023-01-08T15:23:27.342Z,73.63
2023-01-08T15:25:55.962Z,73.67
2023-01-08T15:28:22.511Z,73.67
2023-01-08T15:30:49.420Z,73.70
2023-01-08T15:33:19.745Z,73.84
2023-01-08T15:35:46.904Z,74.19
2023-01-08T15:38:13.625Z,73.30
2023-01-08T15:40:40.152Z,73.22
2023-01-08T15:43:12.835Z,73.27
2023-01-08T15:45:42.189Z,73.74
2023-01-08T15:48:10.266Z,73.55
2023-01-08T15:50:39.904Z,73.67
2023-01-08T15:53:12.982Z,73.45
2023-01-08T15:55:43.294Z,73.55
2023-01-08T15:58:13.900Z,73.80
2023-01-08T16:00:42.374Z,73.74
2023-01-08T16:03:09.438Z,74.02
2023-01-08T16:05:36.465Z,73.51
2023-01-08T16:08:03.698Z,73.77
2023-01-08T16:10:30.506Z,74.22
2023-01-08T16:12:57.009Z,73.79
2023-01-08T16:15:24.144Z,74.01
2023-01-08T16:17:50.894Z,73.81
2023-01-08T16:20:18.118Z,73.58
2023-01-08T16:22:44.916Z,73.94
2023-01-08T16:25:11.507Z,74.07
2023-01-08T16:27:39.423Z,73.93
2023-01-08T16:30:08.049Z,74.09
2023-01-08T16:32:34.444Z,74.02
2023-01-08T16:35:00.866Z,74.19
2023-01-08T16:37:27.361Z,73.83
2023-01-08T16:39:53.731Z,73.89
2023-01-08T16:42:20.096Z,73.82
2023-01-08T16:44:46.523Z,74.11
2023-01-08T16:47:12.962Z,74.01
2023-01-08T16:49:41.527Z,74.24
2023-01-08T16:52:09.371Z,74.23
2023-01-08T16:54:35.844Z,74.16
2023-01-08T16:57:02.203Z,74.27
2023-01-08T16:59:28.571Z,74.27
2023-01-08T17:01:55.523Z,74.57
2023-01-08T17:04:21.973Z,74.67
2023-01-08T17:06:48.409Z,74.50
2023-01-08T17:09:15.006Z,74.62
2023-01-08T17:11:41.887Z,74.87
2023-01-08T17:14:09.285Z,74.71
2023-01-08T17:16:35.639Z,74.89
2023-01-08T17:19:02.010Z,74.81
2023-01-08T17:21:28.380Z,74.49
2023-01-08T17:23:54.794Z,74.96
2023-01-08T17:26:21.319Z,74.91
2023-01-08T17:28:47.725Z,74.84
2023-01-08T17:31:18.204Z,74.71
2023-01-08T17:33:49.860Z,74.89
2023-01-08T17:36:17.791Z,74.80
2023-01-08T17:38:44.607Z,74.83
2023-01-08T17:41:30.963Z,75.28
2023-01-08T17:43:57.306Z,75.13
2023-01-08T17:46:24.544Z,75.06
2023-01-08T17:48:50.959Z,75.33
2023-01-08T17:51:17.416Z,75.34
2023-01-08T17:53:43.756Z,75.63
2023-01-08T17:56:10.167Z,75.73
2023-01-08T17:58:36.510Z,75.50
2023-01-08T18:01:03.236Z,75.86
2023-01-08T18:03:29.677Z,76.03
2023-01-08T18:05:56.059Z,75.99
2023-01-08T18:08:22.528Z,76.14
2023-01-08T18:10:48.837Z,76.29
2023-01-08T18:13:15.177Z,76.03
2023-01-08T18:15:41.521Z,75.98
2023-01-08T18:18:07.899Z,76.14
2023-01-08T18:20:34.247Z,76.46
2023-01-08T18:23:00.566Z,76.40
2023-01-08T18:25:26.948Z,75.76
2023-01-08T18:27:53.561Z,76.00
2023-01-08T18:30:20.048Z,75.91
2023-01-08T18:32:46.411Z,76.00
2023-01-08T18:35:12.917Z,76.31
2023-01-08T18:37:39.316Z,76.55
2023-01-08T18:40:06.371Z,76.79
2023-01-08T18:42:33.205Z,77.20
2023-01-08T18:45:00.432Z,77.09
2023-01-08T18:47:28.756Z,76.92
2023-01-08T18:49:58.458Z,76.78
2023-01-08T18:52:25.256Z,76.86
2023-01-08T18:54:53.200Z,76.96
2023-01-08T18:57:19.843Z,76.62
2023-01-08T18:59:49.339Z,76.69
2023-01-08T19:02:26.894Z,76.74
2023-01-08T19:04:53.544Z,76.88
2023-01-08T19:07:20.283Z,76.82
2023-01-08T19:09:46.660Z,76.73
2023-01-08T19:12:13.047Z,76.75
2023-01-08T19:14:39.586Z,76.81
2023-01-08T19:17:05.973Z,76.66
2023-01-08T19:19:32.518Z,76.68
2023-01-08T19:21:58.923Z,76.89
2023-01-08T19:24:25.466Z,76.55
2023-01-08T19:26:52.079Z,76.74
2023-01-08T19:29:18.528Z,76.89
2023-01-08T19:31:45.426Z,76.82
2023-01-08T19:34:11.927Z,76.54
2023-01-08T19:36:39.238Z,76.72
2023-01-08T19:39:07.566Z,76.81
2023-01-08T19:41:52.485Z,77.04
2023-01-08T19:44:18.848Z,76.92
2023-01-08T19:46:45.229Z,77.16
2023-01-08T19:49:11.595Z,77.24
2023-01-08T19:51:37.930Z,77.02
2023-01-08T19:54:04.472Z,77.36
2023-01-08T19:56:31.043Z,77.09
2023-01-08T19:58:57.727Z,77.32
2023-01-08T20:01:26.633Z,76.96
2023-01-08T20:03:54.356Z,77.00
2023-01-08T20:06:23.774Z,76.92
2023-01-08T20:08:53.242Z,77.04
2023-01-08T20:11:21.069Z,77.12
2023-01-08T20:13:47.829Z,76.83
2023-01-08T20:16:16.990Z,76.96
2023-01-08T20:18:44.052Z,76.70
2023-01-08T20:21:17.526Z,76.84
2023-01-08T20:23:44.842Z,76.85
2023-01-08T20:26:14.609Z,76.97
2023-01-08T20:28:42.366Z,77.20
2023-01-08T20:31:11.478Z,77.21
2023-01-08T20:33:38.300Z,76.85
2023-01-08T20:36:10.385Z,76.95
2023-01-08T20:38:37.465Z,77.11
2023-01-08T20:41:06.559Z,77.40
2023-01-08T20:43:38.136Z,77.29
2023-01-08T20:46:05.396Z,77.49
2023-01-08T20:48:37.097Z,77.58
2023-01-08T20:51:12.581Z,77.58
2023-01-08T20:53:40.026Z,77.58
2023-01-08T20:56:09.286Z,77.79
2023-01-08T20:58:37.060Z,77.85
2023-01-08T21:01:12.445Z,77.54
2023-01-08T21:03:39.934Z,77.54
2023-01-08T21:06:08.122Z,77.58
2023-01-08T21:08:34.847Z,77.80
2023-01-08T21:11:03.321Z,77.87
2023-01-08T21:13:30.119Z,77.80
2023-01-08T21:16:05.028Z,77.59
2023-01-08T21:18:31.471Z,77.72
2023-01-08T21:21:00.251Z,77.86
2023-01-08T21:23:27.767Z,77.90
2023-01-08T21:25:57.990Z,77.57
2023-01-08T21:28:25.998Z,77.87
2023-01-08T21:30:52.772Z,77.68
2023-01-08T21:33:19.885Z,78.08
2023-01-08T21:35:46.903Z,77.92
2023-01-08T21:38:13.467Z,78.32
2023-01-08T21:40:39.889Z,78.18
2023-01-08T21:43:25.097Z,78.14
2023-01-08T21:46:01.529Z,78.16
2023-01-08T21:48:29.654Z,78.60
2023-01-08T21:50:56.056Z,78.37
2023-01-08T21:53:31.477Z,78.91
2023-01-08T21:55:59.350Z,78.95
2023-01-08T21:58:27.531Z,78.78
2023-01-08T22:00:54.604Z,79.15
2023-01-08T22:03:21.672Z,78.82
2023-01-08T22:06:02.293Z,79.30
2023-01-08T22:08:30.979Z,79.27
2023-01-08T22:11:00.730Z,79.65
2023-01-08T22:13:27.792Z,79.36
2023-01-08T22:16:05.634Z,79.80
2023-01-08T22:18:32.928Z,79.79
2023-01-08T22:21:07.809Z,79.90
2023-01-08T22:23:34.896Z,80.05
2023-01-08T22:26:09.254Z,80.22
2023-01-08T22:28:39.364Z,80.01
2023-01-08T22:31:07.614Z,80.82
2023-01-08T22:33:34.401Z,80.85
2023-01-08T22:36:09.497Z,81.23
2023-01-08T22:38:36.343Z,81.80
2023-01-08T22:41:03.787Z,82.58
2023-01-08T22:43:30.405Z,83.14
2023-01-08T22:45:59.452Z,83.44
2023-01-08T22:48:27.666Z,83.72
2023-01-08T22:50:54.072Z,83.85
2023-01-08T22:53:20.735Z,84.20
2023-01-08T22:55:47.752Z,84.18
2023-01-08T22:58:15.292Z,84.40
2023-01-08T23:00:42.016Z,84.46
2023-01-08T23:03:08.584Z,84.80
2023-01-08T23:05:35.795Z,84.93
2023-01-08T23:08:02.421Z,84.93
2023-01-08T23:10:29.369Z,84.81
2023-01-08T23:12:55.856Z,85.17
2023-01-08T23:15:22.869Z,85.08
2023-01-08T23:17:52.551Z,84.81
2023-01-08T23:20:20.679Z,85.24
2023-01-08T23:22:48.471Z,85.37
2023-01-08T23:25:15.999Z,85.69
2023-01-08T23:27:44.114Z,85.82
2023-01-08T23:30:11.163Z,85.57
2023-01-08T23:32:37.542Z,85.73
2023-01-08T23:35:04.229Z,85.67
2023-01-08T23:37:30.718Z,85.98
2023-01-08T23:39:57.100Z,85.95
2023-01-08T23:42:23.436Z,85.90
2023-01-08T23:44:49.912Z,85.60
2023-01-08T23:47:16.308Z,85.24
2023-01-08T23:49:42.667Z,85.16
2023-01-08T23:52:09.059Z,84.83
2023-01-08T23:54:35.905Z,84.79
2023-01-08T23:57:02.707Z,84.79
2023-01-08T23:59:29.091Z,84.74
